Time;durP1;ratioP1;P1;durP2;ratioP2;P2;SDS_P1;SDS_P2;PMS_P1;PMS_P2;Temp;Humidity;BMP_temperature;BMP_pressure;BME280_temperature;BME280_humidity;BME280_pressure;Samples;Min_cycle;Max_cycle;Signal;HPM_P1;HPM_P2
2021/11/13 00:00:33;;;;;;;2.10;0.75;;;;;;;11.49;78.22;99957.44;4881814;29;20024;-72
2021/11/13 00:02:59;;;;;;;4.40;1.25;;;;;;;11.50;77.75;99966.47;4913306;29;20031;-71
2021/11/13 00:05:25;;;;;;;2.70;0.88;;;;;;;11.47;78.24;99967.03;4911826;29;20028;-74
2021/11/13 00:07:51;;;;;;;2.75;1.48;;;;;;;11.43;78.23;99960.50;4894808;29;20032;-73
2021/11/13 00:10:25;;;;;;;4.32;0.90;;;;;;;11.42;78.08;99961.59;4917282;29;20036;-74
2021/11/13 00:12:51;;;;;;;6.20;1.02;;;;;;;11.37;78.40;99956.16;4899850;29;20039;-75
2021/11/13 00:15:20;;;;;;;4.63;1.15;;;;;;;11.39;78.30;99970.38;4913596;29;20032;-76
2021/11/13 00:17:46;;;;;;;4.22;0.95;;;;;;;11.39;78.44;99975.84;4917401;29;20363;-76
2021/11/13 00:20:11;;;;;;;4.68;1.38;;;;;;;11.41;78.34;99973.66;4924148;29;20215;-76
2021/11/13 00:22:37;;;;;;;7.30;0.95;;;;;;;11.37;78.12;99975.31;4917961;29;20048;-76
2021/11/13 00:25:03;;;;;;;9.32;2.08;;;;;;;11.33;77.96;99972.31;4919805;29;20371;-75
2021/11/13 00:27:30;;;;;;;4.70;0.90;;;;;;;11.27;77.92;99968.81;4919332;29;20556;-75
2021/11/13 00:29:55;;;;;;;4.72;1.27;;;;;;;11.22;77.96;99959.81;4892563;29;20039;-76
2021/11/13 00:32:21;;;;;;;7.57;1.10;;;;;;;11.11;78.29;99942.59;4927415;29;20048;-75
2021/11/13 00:34:46;;;;;;;4.50;1.00;;;;;;;11.14;78.37;99952.97;4922789;29;20097;-75
2021/11/13 00:37:12;;;;;;;4.15;0.57;;;;;;;11.20;78.06;99972.94;4922045;29;20538;-74
2021/11/13 00:39:37;;;;;;;2.28;0.95;;;;;;;11.22;78.18;99987.16;4913804;29;20465;-73
2021/11/13 00:42:03;;;;;;;1.27;0.70;;;;;;;11.21;77.26;99980.84;4900497;29;20464;-74
2021/11/13 00:44:29;;;;;;;2.42;0.68;;;;;;;11.12;77.18;99966.13;4915772;29;20047;-74
2021/11/13 00:46:55;;;;;;;2.05;0.82;;;;;;;11.14;77.80;99975.72;4886345;29;20491;-72
2021/11/13 00:49:21;;;;;;;0.63;0.50;;;;;;;11.12;77.04;99977.06;4914433;29;20063;-72
2021/11/13 00:51:46;;;;;;;2.75;0.75;;;;;;;11.08;77.43;99968.63;4889635;29;20083;-73
2021/11/13 00:54:12;;;;;;;0.77;0.52;;;;;;;11.04;77.29;99974.91;4899831;29;20032;-72
2021/11/13 00:56:38;;;;;;;1.70;0.60;;;;;;;10.99;77.26;99971.13;4900381;29;20432;-73
2021/11/13 00:59:04;;;;;;;5.57;1.63;;;;;;;10.92;77.01;99988.91;4896586;29;20084;-74
2021/11/13 01:01:29;;;;;;;1.70;0.50;;;;;;;10.93;77.24;99991.38;4900536;29;20662;-71
2021/11/13 01:03:55;;;;;;;6.10;0.70;;;;;;;10.90;77.56;99991.94;4881830;29;20029;-71
2021/11/13 01:06:21;;;;;;;2.88;0.68;;;;;;;10.78;77.29;99978.56;4902460;29;20039;-72
2021/11/13 01:08:48;;;;;;;1.08;0.57;;;;;;;10.88;76.86;99993.31;4895361;29;20028;-72
2021/11/13 01:11:15;;;;;;;0.88;0.47;;;;;;;10.85;76.98;99994.69;4880829;29;20138;-73
2021/11/13 01:13:41;;;;;;;1.92;0.50;;;;;;;10.83;77.38;99992.25;4870572;29;20218;-75
2021/11/13 01:16:07;;;;;;;1.25;0.40;;;;;;;10.88;76.86;99998.78;4899581;29;20472;-71
2021/11/13 01:18:32;;;;;;;8.45;0.75;;;;;;;10.87;76.96;100019.03;4894466;29;20092;-70
2021/11/13 01:20:58;;;;;;;10.10;0.80;;;;;;;10.85;76.52;100016.59;4879542;29;20084;-71
2021/11/13 01:23:23;;;;;;;0.88;0.60;;;;;;;10.77;77.59;100008.94;4875532;29;20068;-71
2021/11/13 01:25:49;;;;;;;5.90;1.75;;;;;;;10.71;77.46;100004.56;4893511;29;20040;-70
2021/11/13 01:28:15;;;;;;;1.75;0.40;;;;;;;10.70;77.67;100017.41;4876677;29;20393;-71
2021/11/13 01:30:41;;;;;;;0.75;0.52;;;;;;;10.63;77.88;100017.72;4875349;29;20029;-71
2021/11/13 01:33:06;;;;;;;1.45;0.50;;;;;;;10.67;77.80;100025.38;4882738;29;20113;-71
2021/11/13 01:35:32;;;;;;;2.63;0.40;;;;;;;10.67;77.07;100017.16;4891703;29;20383;-72
2021/11/13 01:37:57;;;;;;;2.17;0.60;;;;;;;10.64;77.13;100024.84;4899129;29;20115;-73
2021/11/13 01:40:25;;;;;;;6.68;0.43;;;;;;;10.64;77.45;100035.78;4893954;29;20036;-71
2021/11/13 01:42:55;;;;;;;9.55;0.93;;;;;;;10.58;78.30;100027.84;4889771;29;20036;-72
2021/11/13 01:45:21;;;;;;;4.30;0.88;;;;;;;10.56;77.68;100028.13;4894830;29;20052;-70
2021/11/13 01:47:47;;;;;;;3.90;1.27;;;;;;;10.57;77.95;100029.75;4894468;29;20033;-72
2021/11/13 01:50:21;;;;;;;3.35;0.60;;;;;;;10.62;78.29;100034.41;4896845;29;20047;-72
2021/11/13 01:52:48;;;;;;;3.55;1.15;;;;;;;10.64;77.95;100035.78;4888705;29;20052;-70
2021/11/13 01:55:16;;;;;;;1.42;0.47;;;;;;;10.70;78.32;100038.47;4888285;29;20432;-71
2021/11/13 01:57:45;;;;;;;6.13;0.63;;;;;;;10.69;78.23;100036.84;4895318;29;20024;-72
2021/11/13 02:00:23;;;;;;;0.80;0.40;;;;;;;10.74;77.60;100042.31;4892344;29;20028;-71
2021/11/13 02:02:51;;;;;;;2.67;0.52;;;;;;;10.71;77.79;100032.72;4889603;29;20100;-72
2021/11/13 02:05:17;;;;;;;9.05;0.80;;;;;;;10.62;78.06;100035.22;4889729;29;20142;-70
2021/11/13 02:07:43;;;;;;;2.28;0.70;;;;;;;10.60;78.30;100031.09;4892109;29;20048;-70
2021/11/13 02:10:10;;;;;;;1.05;0.50;;;;;;;10.60;78.71;100053.81;4887358;29;20353;-72
2021/11/13 02:12:35;;;;;;;7.97;0.50;;;;;;;10.60;78.08;100052.97;4888431;29;20040;-71
2021/11/13 02:15:05;;;;;;;5.43;0.68;;;;;;;10.62;78.08;100078.97;4889163;29;20404;-71
2021/11/13 02:17:31;;;;;;;0.73;0.30;;;;;;;10.67;77.41;100086.34;4896261;29;20018;-71
2021/11/13 02:20:13;;;;;;;4.25;0.43;;;;;;;10.63;77.90;100085.25;4881204;29;20037;-72
2021/11/13 02:22:39;;;;;;;0.70;0.50;;;;;;;10.58;78.23;100066.94;4891251;29;20131;-71
2021/11/13 02:25:05;;;;;;;3.67;0.55;;;;;;;10.58;78.32;100077.88;4892720;29;20515;-70
2021/11/13 02:27:31;;;;;;;1.95;0.45;;;;;;;10.60;77.88;100083.06;4880760;29;20036;-71
2021/11/13 02:29:57;;;;;;;3.85;0.40;;;;;;;10.60;78.54;100100.31;4894087;29;20108;-73
2021/11/13 02:32:22;;;;;;;4.43;0.80;;;;;;;10.57;78.01;100094.53;4889311;29;20089;-72
2021/11/13 02:34:48;;;;;;;10.63;0.63;;;;;;;10.52;78.45;100094.56;4876335;29;20111;-71
2021/11/13 02:37:14;;;;;;;4.18;0.73;;;;;;;10.53;78.09;100097.03;4875148;29;20064;-73
2021/11/13 02:39:39;;;;;;;3.30;0.55;;;;;;;10.55;78.45;100103.03;4893426;29;20494;-73
2021/11/13 02:42:05;;;;;;;2.33;0.60;;;;;;;10.55;78.05;100104.94;4888377;29;20103;-70
2021/11/13 02:44:32;;;;;;;2.17;0.90;;;;;;;10.57;77.79;100098.13;4869841;29;20036;-73
2021/11/13 02:46:59;;;;;;;3.78;0.50;;;;;;;10.53;77.89;100090.72;4892913;29;20193;-73
2021/11/13 02:49:25;;;;;;;2.08;0.60;;;;;;;10.49;78.14;100085.00;4893493;29;20025;-72
2021/11/13 02:51:50;;;;;;;3.65;0.60;;;;;;;10.45;78.83;100097.56;4861078;29;20063;-73
2021/11/13 02:54:16;;;;;;;2.97;0.60;;;;;;;10.43;77.98;100097.81;4895702;29;20139;-71
2021/11/13 02:56:41;;;;;;;5.13;0.50;;;;;;;10.39;79.11;100082.25;4914353;29;20040;-71
2021/11/13 02:59:07;;;;;;;2.22;0.35;;;;;;;10.41;78.94;100093.72;4926328;29;20024;-73
2021/11/13 03:01:33;;;;;;;2.97;0.90;;;;;;;10.34;78.96;100082.25;4890943;29;20079;-72
2021/11/13 03:03:58;;;;;;;1.60;0.73;;;;;;;10.38;79.59;100094.28;4915729;29;20059;-73
2021/11/13 03:06:24;;;;;;;0.32;0.30;;;;;;;10.38;78.67;100094.28;4913515;29;20030;-71
2021/11/13 03:08:51;;;;;;;6.32;0.40;;;;;;;10.41;78.58;100099.19;4914472;29;20394;-73
2021/11/13 03:11:19;;;;;;;1.73;0.55;;;;;;;10.44;78.45;100110.41;4916904;29;20095;-72
2021/11/13 03:13:47;;;;;;;1.13;0.40;;;;;;;10.46;78.50;100116.41;4917686;29;20028;-70
2021/11/13 03:16:15;;;;;;;0.40;0.30;;;;;;;10.50;78.11;100119.44;4916296;29;20039;-70
2021/11/13 03:18:41;;;;;;;1.67;0.28;;;;;;;10.51;77.92;100121.06;4917719;29;20024;-69
2021/11/13 03:21:07;;;;;;;1.40;0.40;;;;;;;10.51;77.63;100121.06;4921981;29;20035;-70
2021/11/13 03:23:35;;;;;;;0.93;0.50;;;;;;;10.47;78.00;100126.28;4931184;29;20032;-68
2021/11/13 03:26:05;;;;;;;1.85;0.43;;;;;;;10.49;78.13;100123.25;4912536;29;20024;-68
2021/11/13 03:28:37;;;;;;;1.52;0.50;;;;;;;10.53;78.21;100123.53;4923560;29;20066;-70
2021/11/13 03:31:03;;;;;;;1.58;0.47;;;;;;;10.61;77.86;100122.97;4932433;23;20702;-74
2021/11/13 03:33:30;;;;;;;1.40;0.75;;;;;;;10.73;77.85;100139.94;4904044;29;20100;-76
2021/11/13 03:35:56;;;;;;;0.43;0.30;;;;;;;10.81;77.98;100136.66;4913444;29;20040;-74
2021/11/13 03:38:22;;;;;;;1.38;0.40;;;;;;;10.85;77.38;100126.00;4920764;29;20447;-74
2021/11/13 03:40:49;;;;;;;1.30;0.60;;;;;;;10.89;78.02;100132.53;4918015;29;20039;-75
2021/11/13 03:43:15;;;;;;;1.00;0.20;;;;;;;10.92;77.32;100132.00;4915416;29;20039;-73
2021/11/13 03:45:42;;;;;;;1.00;0.43;;;;;;;10.96;77.33;100133.06;4908739;29;20632;-73
2021/11/13 03:48:08;;;;;;;0.95;0.40;;;;;;;10.96;77.50;100130.34;4900858;29;20032;-73
2021/11/13 03:50:34;;;;;;;7.38;0.68;;;;;;;11.02;77.63;100135.81;4903021;29;20107;-73
2021/11/13 03:53:00;;;;;;;0.95;0.20;;;;;;;10.98;77.63;100128.16;4923078;29;20024;-75
2021/11/13 03:55:26;;;;;;;2.05;1.00;;;;;;;11.07;77.44;100144.00;4924778;29;20016;-75
2021/11/13 03:57:52;;;;;;;1.17;0.40;;;;;;;11.13;77.32;100149.19;4922792;29;20036;-74
2021/11/13 04:00:20;;;;;;;0.40;0.40;;;;;;;11.20;76.99;100148.94;4930718;29;20075;-75
2021/11/13 04:02:47;;;;;;;1.10;0.25;;;;;;;11.26;77.29;100145.06;4913830;29;20034;-76
2021/11/13 04:05:14;;;;;;;0.43;0.20;;;;;;;11.35;76.51;100148.88;4928567;29;20024;-74
2021/11/13 04:07:40;;;;;;;1.45;0.28;;;;;;;11.38;76.45;100147.50;4929427;29;20039;-76
2021/11/13 04:10:07;;;;;;;1.30;0.50;;;;;;;11.35;76.42;100145.31;4923332;29;20093;-76
2021/11/13 04:12:33;;;;;;;0.38;0.30;;;;;;;11.38;76.17;100149.44;4899819;29;20055;-75
2021/11/13 04:14:59;;;;;;;1.13;0.40;;;;;;;11.35;76.30;100157.09;4913546;29;20032;-74
2021/11/13 04:17:26;;;;;;;3.83;0.40;;;;;;;11.39;76.17;100157.38;4911730;29;20395;-76
2021/11/13 04:19:51;;;;;;;0.80;0.38;;;;;;;11.43;76.10;100163.09;4917090;29;20766;-75
2021/11/13 04:22:17;;;;;;;2.60;0.60;;;;;;;11.44;75.79;100167.47;4885413;29;20036;-74
2021/11/13 04:24:42;;;;;;;4.03;0.50;;;;;;;11.40;76.19;100169.13;4916169;29;20220;-75
2021/11/13 04:27:08;;;;;;;0.40;0.32;;;;;;;11.42;75.78;100177.88;4891707;29;20370;-75
2021/11/13 04:29:33;;;;;;;0.63;0.25;;;;;;;11.38;75.80;100177.63;4931373;28;20320;-75
2021/11/13 04:31:59;;;;;;;1.38;0.40;;;;;;;11.35;75.81;100184.47;4937417;29;20031;-75
2021/11/13 04:34:26;;;;;;;2.28;0.60;;;;;;;11.31;75.91;100186.09;4937117;29;20031;-75
2021/11/13 04:36:54;;;;;;;5.70;0.80;;;;;;;11.22;76.00;100187.78;4933387;29;20034;-75
2021/11/13 04:39:25;;;;;;;2.40;0.95;;;;;;;11.15;77.05;100189.97;4906539;29;20405;-77
2021/11/13 04:41:52;;;;;;;0.55;0.47;;;;;;;11.10;77.05;100193.53;4927006;29;20114;-78
2021/11/13 04:44:18;;;;;;;1.60;0.63;;;;;;;11.09;77.01;100191.88;4901271;29;20039;-78
2021/11/13 04:46:43;;;;;;;0.80;0.63;;;;;;;11.11;77.16;100208.03;4918093;29;20084;-78
2021/11/13 04:49:09;;;;;;;1.27;0.75;;;;;;;11.05;77.10;100209.13;4929175;29;20032;-77
2021/11/13 04:51:35;;;;;;;1.95;0.50;;;;;;;11.06;76.95;100202.59;4903005;29;20500;-76
2021/11/13 04:54:00;;;;;;;3.42;0.73;;;;;;;11.11;77.52;100208.03;4942667;29;20060;-75
2021/11/13 04:56:26;;;;;;;1.45;0.50;;;;;;;11.16;76.78;100224.47;4935498;29;20115;-76
2021/11/13 04:58:52;;;;;;;0.82;0.47;;;;;;;11.16;76.34;100213.50;4931290;29;20024;-76
2021/11/13 05:01:17;;;;;;;8.57;0.80;;;;;;;11.07;77.16;100215.16;4920335;29;20027;-76
2021/11/13 05:03:43;;;;;;;1.10;0.65;;;;;;;10.99;76.87;100214.63;4923496;29;20031;-75
2021/11/13 05:06:08;;;;;;;2.40;1.05;;;;;;;10.87;76.71;100216.81;4933159;29;20105;-76
2021/11/13 05:08:34;;;;;;;2.72;0.50;;;;;;;10.88;77.12;100207.50;4932226;29;20023;-76
2021/11/13 05:10:59;;;;;;;3.38;1.00;;;;;;;10.87;77.26;100216.81;4917798;29;20023;-76
2021/11/13 05:13:25;;;;;;;10.90;0.60;;;;;;;10.81;76.86;100224.19;4935846;29;20042;-76
2021/11/13 05:15:50;;;;;;;1.73;0.75;;;;;;;10.82;77.13;100225.81;4918517;29;20022;-77
2021/11/13 05:18:16;;;;;;;2.22;0.55;;;;;;;10.83;76.84;100226.63;4936727;29;20031;-77
2021/11/13 05:20:41;;;;;;;1.05;0.73;;;;;;;10.78;76.97;100229.38;4931230;29;20035;-77
2021/11/13 05:23:07;;;;;;;6.45;0.65;;;;;;;10.81;76.85;100239.78;4920622;29;20028;-77
2021/11/13 05:25:33;;;;;;;1.73;0.40;;;;;;;10.83;77.02;100227.47;4934596;29;20387;-76
2021/11/13 05:27:59;;;;;;;0.73;0.30;;;;;;;10.83;76.65;100232.09;4914533;29;20035;-78
2021/11/13 05:30:26;;;;;;;0.85;0.40;;;;;;;10.89;77.13;100228.28;4922724;28;20047;-78
2021/11/13 05:32:53;;;;;;;0.75;0.30;;;;;;;10.96;76.88;100237.03;4931956;29;20119;-77
2021/11/13 05:35:19;;;;;;;1.85;0.45;;;;;;;11.00;76.31;100224.47;4942637;29;20450;-77
2021/11/13 05:37:46;;;;;;;4.00;0.55;;;;;;;11.02;75.94;100226.09;4938935;29;20047;-78
2021/11/13 05:40:12;;;;;;;0.90;0.30;;;;;;;11.05;75.63;100228.28;4929518;29;20024;-78
2021/11/13 05:42:39;;;;;;;0.85;0.35;;;;;;;11.00;76.19;100240.06;4943063;29;20036;-77
2021/11/13 05:45:06;;;;;;;3.03;0.57;;;;;;;10.94;75.32;100244.72;4927874;29;20035;-78
2021/11/13 05:47:32;;;;;;;0.55;0.40;;;;;;;10.94;75.93;100243.91;4927966;29;20471;-77
2021/11/13 05:49:57;;;;;;;0.28;0.28;;;;;;;10.96;75.50;100250.72;4944682;29;20035;-77
2021/11/13 05:52:23;;;;;;;0.57;0.20;;;;;;;10.97;75.79;100255.09;4930233;29;20042;-76
2021/11/13 05:54:48;;;;;;;0.40;0.28;;;;;;;10.98;75.33;100242.22;4930658;29;20098;-76
2021/11/13 05:57:14;;;;;;;0.73;0.30;;;;;;;11.03;75.29;100246.91;4924824;29;20099;-74
2021/11/13 05:59:39;;;;;;;0.28;0.28;;;;;;;11.04;75.45;100249.38;4948812;29;20039;-75
2021/11/13 06:02:05;;;;;;;2.15;0.40;;;;;;;11.08;75.46;100263.31;4936057;29;20611;-75
2021/11/13 06:04:31;;;;;;;1.45;0.20;;;;;;;11.10;75.22;100269.34;4943129;29;20028;-76
2021/11/13 06:06:57;;;;;;;0.32;0.20;;;;;;;11.18;74.98;100274.25;4930734;29;20027;-77
2021/11/13 06:09:23;;;;;;;2.05;0.30;;;;;;;11.19;75.11;100278.66;4938228;29;20662;-76
2021/11/13 06:11:48;;;;;;;1.10;0.30;;;;;;;11.22;75.07;100289.03;4917517;29;20135;-76
2021/11/13 06:14:14;;;;;;;0.30;0.30;;;;;;;11.25;74.74;100298.63;4937163;29;20031;-78
2021/11/13 06:16:39;;;;;;;0.77;0.40;;;;;;;11.26;74.59;100301.09;4932602;29;20368;-76
2021/11/13 06:19:04;;;;;;;2.95;0.28;;;;;;;11.31;74.30;100309.28;4895158;29;20094;-76
2021/11/13 06:21:30;;;;;;;0.43;0.25;;;;;;;11.35;74.04;100309.59;4935484;29;20028;-76
2021/11/13 06:23:56;;;;;;;1.35;0.60;;;;;;;11.36;74.29;100305.75;4917780;29;20055;-77
2021/11/13 06:26:21;;;;;;;1.08;0.40;;;;;;;11.38;74.02;100310.97;4934914;29;20036;-75
2021/11/13 06:28:47;;;;;;;1.65;0.40;;;;;;;11.39;73.85;100307.94;4931542;29;20035;-76
2021/11/13 06:31:14;;;;;;;1.88;0.30;;;;;;;11.38;73.82;100303.56;4934892;29;20063;-77
2021/11/13 06:33:40;;;;;;;2.83;0.13;;;;;;;11.38;73.78;100303.56;4926433;29;20102;-77
2021/11/13 06:36:06;;;;;;;5.78;0.90;;;;;;;11.43;73.65;100319.97;4929542;29;20116;-75
2021/11/13 06:38:33;;;;;;;4.20;0.25;;;;;;;11.42;72.89;100333.94;4922408;29;20114;-75
2021/11/13 06:40:58;;;;;;;2.88;0.40;;;;;;;11.43;73.31;100338.31;4919285;29;20031;-76
2021/11/13 06:43:24;;;;;;;5.30;0.30;;;;;;;11.45;73.55;100336.16;4933203;29;20028;-77
2021/11/13 06:45:49;;;;;;;0.80;0.28;;;;;;;11.48;73.42;100336.41;4937998;29;20145;-77
2021/11/13 06:48:15;;;;;;;1.85;0.30;;;;;;;11.48;73.19;100335.59;4921253;29;20038;-76
2021/11/13 06:50:40;;;;;;;0.68;0.30;;;;;;;11.51;73.44;100340.53;4936177;29;20040;-77
2021/11/13 06:53:06;;;;;;;1.77;0.32;;;;;;;11.55;73.46;100347.09;4933523;29;20036;-76
2021/11/13 06:55:32;;;;;;;0.30;0.20;;;;;;;11.56;73.53;100348.72;4909041;29;20032;-76
2021/11/13 06:57:57;;;;;;;3.45;0.73;;;;;;;11.62;72.61;100358.59;4934849;29;20439;-78
2021/11/13 07:00:24;;;;;;;5.68;0.52;;;;;;;11.63;72.63;100362.97;4937961;29;20362;-75
2021/11/13 07:02:49;;;;;;;0.63;0.30;;;;;;;11.67;72.67;100358.59;4928006;29;20033;-75
2021/11/13 07:05:15;;;;;;;0.63;0.30;;;;;;;11.72;73.23;100368.72;4921240;29;20047;-75
2021/11/13 07:07:41;;;;;;;0.38;0.20;;;;;;;11.69;73.08;100361.84;4934203;29;20055;-77
2021/11/13 07:10:10;;;;;;;0.90;0.32;;;;;;;11.72;72.91;100362.41;4918347;29;20043;-75
2021/11/13 07:12:36;;;;;;;0.40;0.25;;;;;;;11.73;72.87;100378.56;4934803;29;20019;-75
2021/11/13 07:15:04;;;;;;;0.20;0.13;;;;;;;11.76;72.86;100383.50;4934590;29;20079;-75
2021/11/13 07:17:29;;;;;;;0.88;0.55;;;;;;;11.80;72.88;100381.06;4916846;29;20118;-75
2021/11/13 07:19:55;;;;;;;3.05;0.65;;;;;;;11.84;73.13;100393.06;4901911;29;20099;-75
2021/11/13 07:22:21;;;;;;;0.80;0.30;;;;;;;11.81;72.71;100388.16;4948059;29;20074;-75
2021/11/13 07:24:47;;;;;;;0.65;0.40;;;;;;;11.84;72.71;100399.41;4937082;29;20466;-75
2021/11/13 07:27:13;;;;;;;0.88;0.55;;;;;;;11.85;73.01;100411.16;4921645;29;20047;-74
2021/11/13 07:29:46;;;;;;;0.65;0.40;;;;;;;11.88;72.89;100418.84;4930310;29;20127;-75
2021/11/13 07:32:15;;;;;;;1.10;0.22;;;;;;;11.90;73.15;100416.66;4921085;29;20127;-76
2021/11/13 07:34:41;;;;;;;3.70;0.30;;;;;;;11.92;72.65;100422.69;4919721;29;20016;-74
2021/11/13 07:37:07;;;;;;;1.15;0.40;;;;;;;12.00;73.33;100433.13;4919961;29;20131;-74
2021/11/13 07:39:33;;;;;;;0.63;0.40;;;;;;;12.02;72.98;100436.41;4918526;29;20040;-74
2021/11/13 07:41:59;;;;;;;1.58;0.40;;;;;;;12.02;72.60;100433.66;4916725;29;20027;-75
2021/11/13 07:44:24;;;;;;;0.38;0.35;;;;;;;12.09;72.73;100438.03;4917988;29;20024;-75
2021/11/13 07:46:50;;;;;;;0.52;0.20;;;;;;;12.13;72.26;100450.09;4915748;29;20028;-74
2021/11/13 07:49:16;;;;;;;0.55;0.22;;;;;;;12.14;72.12;100452.56;4918311;29;20031;-73
2021/11/13 07:51:41;;;;;;;1.35;0.30;;;;;;;12.11;72.29;100450.38;4919362;29;20379;-74
2021/11/13 07:54:10;;;;;;;3.50;0.20;;;;;;;12.15;71.59;100459.69;4918250;29;20055;-74
2021/11/13 07:56:36;;;;;;;0.43;0.30;;;;;;;12.18;71.93;100456.41;4917395;29;20032;-74
2021/11/13 07:59:03;;;;;;;0.50;0.40;;;;;;;12.20;71.47;100453.38;4920031;29;20039;-74
2021/11/13 08:01:29;;;;;;;1.70;0.20;;;;;;;12.30;71.18;100463.53;4894749;29;20120;-74
2021/11/13 08:03:54;;;;;;;1.52;1.08;;;;;;;12.32;71.34;100473.09;4919320;29;20061;-72
2021/11/13 08:06:20;;;;;;;2.13;0.43;;;;;;;12.32;70.75;100475.84;4898168;29;20383;-72
2021/11/13 08:08:45;;;;;;;0.73;0.20;;;;;;;12.31;70.67;100470.63;4914395;29;20036;-72
2021/11/13 08:11:10;;;;;;;0.10;0.10;;;;;;;12.39;70.55;100481.84;4885528;29;20459;-74
2021/11/13 08:13:40;;;;;;;0.28;0.17;;;;;;;12.44;71.31;100482.94;4899866;29;20027;-75
2021/11/13 08:16:06;;;;;;;4.25;0.35;;;;;;;12.48;70.70;100490.34;4912695;29;20035;-75
2021/11/13 08:18:31;;;;;;;0.30;0.20;;;;;;;12.53;70.81;100484.03;4919631;29;20035;-75
2021/11/13 08:20:59;;;;;;;0.57;0.45;;;;;;;12.61;71.00;100483.47;4916331;29;20348;-75
2021/11/13 08:23:27;;;;;;;0.20;0.15;;;;;;;12.70;70.73;100492.78;4924873;29;20043;-75
2021/11/13 08:25:53;;;;;;;0.73;0.45;;;;;;;12.79;70.60;100483.97;4918567;29;20024;-73
2021/11/13 08:28:19;;;;;;;0.50;0.22;;;;;;;12.86;70.35;100493.53;4918930;29;20467;-75
2021/11/13 08:30:45;;;;;;;0.63;0.30;;;;;;;12.91;70.15;100493.53;4908513;29;20047;-75
2021/11/13 08:33:12;;;;;;;0.55;0.28;;;;;;;13.04;69.83;100508.59;4909629;29;20032;-75
2021/11/13 08:35:51;;;;;;;1.17;0.30;;;;;;;13.12;70.04;100504.44;4913459;29;20020;-76
2021/11/13 08:38:19;;;;;;;0.10;0.10;;;;;;;13.23;69.83;100516.19;4927217;29;20032;-74
2021/11/13 08:40:46;;;;;;;1.55;0.20;;;;;;;13.35;69.58;100519.47;4938698;29;20042;-75
2021/11/13 08:43:16;;;;;;;5.38;0.30;;;;;;;13.32;68.91;100522.75;4908564;29;20115;-75
2021/11/13 08:45:42;;;;;;;0.52;0.22;;;;;;;13.26;68.82;100515.63;4932157;29;20122;-76
2021/11/13 08:48:08;;;;;;;1.13;0.40;;;;;;;13.19;68.49;100528.84;4935004;29;20024;-76
2021/11/13 08:50:34;;;;;;;0.90;0.28;;;;;;;13.13;68.46;100519.81;4930675;29;20133;-74
2021/11/13 08:53:03;;;;;;;0.88;0.30;;;;;;;13.17;68.62;100537.38;4924385;29;20039;-74
2021/11/13 08:55:30;;;;;;;0.20;0.20;;;;;;;13.21;68.70;100540.34;4939076;29;20026;-74
2021/11/13 08:57:57;;;;;;;0.25;0.15;;;;;;;13.21;68.89;100540.34;4939054;29;20110;-75
2021/11/13 09:00:30;;;;;;;0.50;0.15;;;;;;;13.17;68.43;100529.13;4929244;29;20135;-74
2021/11/13 09:02:58;;;;;;;0.40;0.30;;;;;;;13.16;68.39;100534.91;4919476;29;20056;-74
2021/11/13 09:05:24;;;;;;;0.25;0.20;;;;;;;13.16;68.75;100543.94;4919850;29;20043;-74
2021/11/13 09:07:50;;;;;;;0.13;0.10;;;;;;;13.16;68.71;100548.63;4902666;29;20122;-75
2021/11/13 09:10:15;;;;;;;0.13;0.13;;;;;;;13.17;68.41;100558.50;4919483;29;20039;-73
2021/11/13 09:12:42;;;;;;;0.35;0.13;;;;;;;13.15;68.91;100557.97;4915324;29;20043;-78
2021/11/13 09:15:17;;;;;;;2.35;0.10;;;;;;;13.17;69.04;100561.22;4910872;29;20112;-75
2021/11/13 09:17:51;;;;;;;0.10;0.10;;;;;;;13.27;69.20;100563.94;4923480;29;20499;-74
2021/11/13 09:20:18;;;;;;;0.40;0.10;;;;;;;13.28;68.61;100549.13;4906232;29;20047;-74
2021/11/13 09:22:43;;;;;;;0.52;0.30;;;;;;;13.34;68.28;100550.75;4912167;29;20033;-76
2021/11/13 09:25:09;;;;;;;0.28;0.28;;;;;;;13.39;68.16;100545.25;4901691;29;20028;-75
2021/11/13 09:27:40;;;;;;;1.02;0.20;;;;;;;13.52;67.94;100562.22;4900480;29;20031;-75
2021/11/13 09:30:09;;;;;;;0.25;0.20;;;;;;;13.63;67.93;100569.31;4924416;29;20498;-75
2021/11/13 09:32:44;;;;;;;0.20;0.20;;;;;;;13.73;67.83;100576.69;4937867;29;20034;-76
2021/11/13 09:35:11;;;;;;;0.32;0.17;;;;;;;13.84;67.88;100570.00;4905352;29;20035;-73
2021/11/13 09:37:46;;;;;;;3.25;0.20;;;;;;;13.96;67.79;100561.44;4934497;29;20114;-76
2021/11/13 09:40:13;;;;;;;0.38;0.15;;;;;;;14.05;67.24;100564.41;4930560;29;20034;-77
2021/11/13 09:42:43;;;;;;;0.20;0.17;;;;;;;14.13;67.28;100566.50;4911462;29;20103;-78
2021/11/13 09:45:11;;;;;;;0.40;0.10;;;;;;;14.11;66.50;100558.56;4940333;29;20039;-79
2021/11/13 09:47:36;;;;;;;0.30;0.20;;;;;;;14.13;66.51;100559.09;4941142;29;20020;-78
2021/11/13 09:50:23;;;;;;;0.30;0.15;;;;;;;14.05;66.69;100558.91;4915065;29;20112;-78
2021/11/13 09:52:50;;;;;;;1.13;0.10;;;;;;;14.06;66.61;100577.84;4927292;29;20117;-76
2021/11/13 09:55:28;;;;;;;0.45;0.10;;;;;;;14.05;66.50;100564.41;4937395;29;20039;-77
2021/11/13 09:57:54;;;;;;;0.82;0.17;;;;;;;14.08;65.99;100583.88;4941228;29;20027;-76
2021/11/13 10:00:29;;;;;;;0.10;0.10;;;;;;;14.05;66.30;100587.19;4939686;29;20035;-76
2021/11/13 10:02:56;;;;;;;0.22;0.20;;;;;;;14.06;65.98;100577.84;4935552;29;20046;-76
2021/11/13 10:05:26;;;;;;;0.60;0.10;;;;;;;14.10;65.81;100586.34;4938841;29;20087;-77
2021/11/13 10:07:52;;;;;;;0.30;0.17;;;;;;;14.07;65.55;100587.72;4942029;29;20023;-75
2021/11/13 10:10:41;;;;;;;0.60;0.20;;;;;;;14.17;65.11;100594.28;4934714;29;20677;-76
2021/11/13 10:13:37;;;;;;;0.35;0.10;;;;;;;14.11;65.15;100586.06;4938775;29;20090;-79
2021/11/13 10:16:09;;;;;;;0.20;0.20;;;;;;;14.30;65.17;100593.63;4921222;29;20445;-77
2021/11/13 10:18:42;;;;;;;2.13;0.10;;;;;;;14.40;65.06;100593.53;4918154;29;20032;-78
2021/11/13 10:21:25;;;;;;;0.17;0.17;;;;;;;14.58;64.27;100599.44;4937043;29;20046;-78
2021/11/13 10:24:01;;;;;;;0.20;0.10;;;;;;;14.66;64.24;100593.38;4914346;29;20020;-80
2021/11/13 10:26:35;;;;;;;0.10;0.05;;;;;;;14.83;64.47;100585.50;4921505;29;20462;-77
2021/11/13 10:29:18;;;;;;;1.42;0.22;;;;;;;15.08;63.18;100585.50;4934707;29;20686;-76
2021/11/13 10:31:50;;;;;;;0.30;0.20;;;;;;;15.16;63.02;100582.91;4913537;29;20119;-79
2021/11/13 10:34:22;;;;;;;0.95;0.10;;;;;;;15.35;61.95;100590.44;4915010;29;20080;-77
2021/11/13 10:36:52;;;;;;;0.45;0.10;;;;;;;15.49;61.83;100602.38;4918738;29;20531;-76
2021/11/13 10:39:25;;;;;;;0.00;0.00;;;;;;;15.67;61.71;100599.94;4920675;29;20455;-77
2021/11/13 10:41:54;;;;;;;0.22;0.10;;;;;;;15.86;61.52;100595.28;4917951;29;20055;-76
2021/11/13 10:44:27;;;;;;;0.55;0.20;;;;;;;16.05;59.54;100597.25;4911761;29;20084;-76
2021/11/13 10:46:53;;;;;;;0.10;0.10;;;;;;;16.04;59.79;100588.13;4920831;29;20042;-75
2021/11/13 10:49:19;;;;;;;0.47;0.20;;;;;;;16.15;59.16;100597.09;4921099;29;20024;-76
2021/11/13 10:51:57;;;;;;;0.43;0.20;;;;;;;16.19;58.65;100586.25;4915928;29;20039;-76
2021/11/13 10:54:23;;;;;;;2.33;0.10;;;;;;;16.35;57.52;100595.94;4924327;29;20161;-75
2021/11/13 10:56:52;;;;;;;0.47;0.17;;;;;;;16.44;57.77;100586.97;4901865;29;20497;-76
2021/11/13 10:59:28;;;;;;;0.93;0.10;;;;;;;16.70;58.37;100612.19;4922044;29;20036;-77
2021/11/13 11:02:07;;;;;;;1.38;0.30;;;;;;;16.76;57.41;100599.94;4907245;29;20038;-76
2021/11/13 11:04:36;;;;;;;0.25;0.10;;;;;;;16.84;57.35;100596.47;4909951;29;20079;-77
2021/11/13 11:07:09;;;;;;;0.28;0.10;;;;;;;16.98;56.48;100592.94;4914980;29;20028;-78
2021/11/13 11:09:45;;;;;;;0.70;0.32;;;;;;;16.95;56.25;100599.09;4915653;29;20048;-78
2021/11/13 11:12:26;;;;;;;;;;;;;;;;;;;;;
2021/11/13 11:14:53;;;;;;;1.52;0.55;;;;;;;16.83;56.19;100597.59;4910451;29;20778;-78
2021/11/13 11:17:30;;;;;;;0.22;0.17;;;;;;;16.86;56.00;100599.75;4913081;29;20043;-78
2021/11/13 11:20:10;;;;;;;0.22;0.00;;;;;;;16.98;55.92;100595.72;4911666;29;20098;-76
2021/11/13 11:22:36;;;;;;;0.22;0.10;;;;;;;17.01;56.69;100601.47;4906686;29;20139;-77
2021/11/13 11:25:09;;;;;;;0.93;0.17;;;;;;;17.03;56.26;100598.41;4898929;29;20455;-78
2021/11/13 11:27:48;;;;;;;0.10;0.10;;;;;;;17.13;55.88;100592.66;4912998;29;20036;-78